Pagrindinis puslapis
METAR-TAF:

METAR-TAF

Oro uostai :

Ki Vestas, Florida, Jungtinės Amerikos Valstijos

platuma: 24-33-13N, ilguma: 081-45-13W, Aukštis: 1 m

Dabartinis oras

Ataskaita buvo paskelbta 53 minutes, ne 03:53 UTC
Vėjas 10 kt iš Rytų/Pietryčių
Temperatūra 29°C
Drėgmė 74%
Slėgis 1020 hPa
Matomumas: 16.1 km
Mažai debesys ne aukštis 2500 ft

METAR: KEYW 110353Z AUTO 11010KT 10SM FEW025 29/24 A3011 RMK AO2 SLP196 T02890244

Laikas: 00:46 (04:46 UTC)

Prognozė

Ataskaita buvo paskelbta 1 valandą ir 50 minutes, ne 02:56 UTC
Prognozė galioja nuo 11 metu 03 UTC su 11 metu 24 UTC
Vėjas 12 kt iš Rytų
Matomumas: 10 km
Išsisklaidę debesys ne aukštis 2500 ft

TAF: KEYW 110256Z 1103/1124 10012KT P6SM SCT025

Orai ataskaitas ir orų prognozės (METAR, TAF).

turimą stotys yra geltonos ir raudonos taškus žemėlapyje.

Perkelti pele per norėdami pamatyti stoties vardą.

Tada spustelėkite, norėdami matyti oro stebėjimo ir prognozės.

Norėdami pakeisti žemėlapį: spustelėkite ant žalios mygtukų su juodo kryžiaus žemyn,; žalią mygtuką su brūkšneliu, jei norite nutolinti; arba žalių rodyklių gretimoms žemėlapius.


METAR-TAF: